Time;durP1;ratioP1;P1;durP2;ratioP2;P2;SDS_P1;SDS_P2;PMS_P1;PMS_P2;Temp;Humidity;BMP_temperature;BMP_pressure;BME280_temperature;BME280_humidity;BME280_pressure;Samples;Min_cycle;Max_cycle;Signal;HPM_P1;HPM_P2
2022/09/15 00:00:44;;;;;;;;;;;12.30;99.90;;;;;;5053931;28;19987;-76
2022/09/15 00:03:12;;;;;;;;;;;12.30;99.90;;;;;;5039034;28;20355;-75
2022/09/15 00:05:38;;;;;;;;;;;12.20;99.90;;;;;;5056761;28;20290;-75
2022/09/15 00:08:05;;;;;;;;;;;12.10;99.90;;;;;;5056493;28;20613;-75
2022/09/15 00:10:32;;;;;;;;;;;12.10;99.90;;;;;;5056779;28;20378;-76
2022/09/15 00:12:58;;;;;;;;;;;12.00;99.90;;;;;;5056851;28;19935;-75
2022/09/15 00:15:25;;;;;;;;;;;12.00;99.90;;;;;;5056131;28;20275;-76
2022/09/15 00:20:45;;;;;;;;;;;11.80;99.90;;;;;;5000407;28;20409;-75
2022/09/15 00:23:12;;;;;;;;;;;11.80;99.90;;;;;;5002374;28;19988;-75
2022/09/15 00:25:43;;;;;;;;;;;11.80;99.90;;;;;;5002605;28;19934;-75
2022/09/15 00:28:10;;;;;;;;;;;11.80;99.90;;;;;;4993777;28;19933;-75
2022/09/15 00:30:39;;;;;;;;;;;11.70;99.90;;;;;;5021161;28;19933;-76
2022/09/15 00:33:06;;;;;;;;;;;11.70;99.90;;;;;;5091014;22;19928;-85
2022/09/15 00:35:36;;;;;;;;;;;11.70;99.90;;;;;;5073977;28;19928;-85
2022/09/15 00:38:04;;;;;;;;;;;11.70;99.90;;;;;;5068298;28;19928;-85
2022/09/15 00:40:30;;;;;;;;;;;11.60;99.90;;;;;;5074774;28;20094;-84
2022/09/15 00:42:57;;;;;;;;;;;13.70;99.90;;;;;;5089784;28;19947;-84
2022/09/15 00:45:24;;;;;;;;;;;11.60;99.90;;;;;;5074603;28;19928;-84
2022/09/15 00:47:51;;;;;;;;;;;11.50;99.90;;;;;;5088964;28;19933;-84
2022/09/15 00:50:19;;;;;;;;;;;11.50;99.90;;;;;;5087969;28;19935;-84
2022/09/15 00:52:48;;;;;;;;;;;11.40;99.90;;;;;;5085664;28;19932;-84
2022/09/15 00:55:18;;;;;;;;;;;11.40;99.90;;;;;;5088271;28;19928;-84
2022/09/15 00:57:47;;;;;;;;;;;11.40;99.90;;;;;;5064922;28;19932;-84
2022/09/15 01:00:16;;;;;;;;;;;11.40;99.90;;;;;;5088948;28;19931;-84
2022/09/15 01:02:43;;;;;;;;;;;11.40;99.90;;;;;;5069689;28;19932;-85
2022/09/15 01:05:12;;;;;;;;;;;11.30;99.90;;;;;;5080011;28;20028;-85
2022/09/15 01:07:41;;;;;;;;;;;11.30;99.90;;;;;;5065106;28;19981;-84
2022/09/15 01:10:11;;;;;;;;;;;11.30;99.90;;;;;;5064811;28;20012;-84
2022/09/15 01:12:40;;;;;;;;;;;11.30;99.90;;;;;;5083339;28;19975;-84
2022/09/15 01:15:07;;;;;;;;;;;11.20;99.90;;;;;;5064488;28;20015;-84
2022/09/15 01:17:40;;;;;;;;;;;11.20;99.90;;;;;;5078321;28;19928;-84
2022/09/15 01:20:25;;;;;;;;;;;11.10;99.90;;;;;;5103923;28;19931;-83
2022/09/15 01:22:59;;;;;;;;;;;11.10;99.90;;;;;;5080650;28;19923;-84
2022/09/15 01:25:35;;;;;;;;;;;11.00;99.90;;;;;;5084444;28;19936;-84
2022/09/15 01:28:15;;;;;;;;;;;11.00;99.90;;;;;;5090221;28;19932;-84
2022/09/15 01:30:44;;;;;;;;;;;11.00;99.90;;;;;;5105681;28;19924;-83
2022/09/15 01:33:22;;;;;;;;;;;11.00;99.90;;;;;;5104059;28;19932;-84
2022/09/15 01:35:51;;;;;;;;;;;11.00;99.90;;;;;;5067817;28;19934;-84
2022/09/15 01:38:22;;;;;;;;;;;10.90;99.90;;;;;;5067233;28;20024;-84
2022/09/15 01:40:52;;;;;;;;;;;10.90;99.90;;;;;;5077450;28;19928;-84
2022/09/15 01:43:20;;;;;;;;;;;10.90;99.90;;;;;;5090207;28;19924;-84
2022/09/15 01:45:49;;;;;;;;;;;10.90;99.90;;;;;;5075163;28;20322;-84
2022/09/15 01:48:18;;;;;;;;;;;10.90;99.90;;;;;;5070118;28;19925;-85
2022/09/15 01:50:46;;;;;;;;;;;10.90;99.90;;;;;;5061008;28;19970;-82
2022/09/15 01:53:15;;;;;;;;;;;10.90;99.90;;;;;;5089702;28;19938;-83
2022/09/15 01:55:46;;;;;;;;;;;10.90;99.90;;;;;;5088752;28;19928;-82
2022/09/15 01:58:13;;;;;;;;;;;11.00;99.90;;;;;;5060688;28;19925;-83
2022/09/15 02:00:42;;;;;;;;;;;11.00;99.90;;;;;;5088443;28;19935;-83
2022/09/15 02:03:16;;;;;;;;;;;11.00;99.90;;;;;;5068188;28;19924;-82
2022/09/15 02:05:46;;;;;;;;;;;11.00;99.90;;;;;;5065501;28;20006;-83
2022/09/15 02:08:14;;;;;;;;;;;11.00;99.90;;;;;;5079326;28;19934;-83
2022/09/15 02:10:44;;;;;;;;;;;11.10;99.90;;;;;;5058937;28;19939;-83
2022/09/15 02:13:15;;;;;;;;;;;11.40;99.90;;;;;;5086334;28;19932;-83
2022/09/15 02:15:46;;;;;;;;;;;11.00;99.90;;;;;;5070199;28;19928;-83
2022/09/15 02:18:17;;;;;;;;;;;11.00;99.90;;;;;;5086839;28;20015;-83
2022/09/15 02:20:48;;;;;;;;;;;11.00;99.90;;;;;;5088228;28;19943;-83
2022/09/15 02:23:17;;;;;;;;;;;11.00;99.90;;;;;;5068737;28;20433;-83
2022/09/15 02:25:46;;;;;;;;;;;10.90;99.90;;;;;;5073906;28;20023;-83
2022/09/15 02:28:15;;;;;;;;;;;10.90;99.90;;;;;;5057479;28;19932;-83
2022/09/15 02:30:43;;;;;;;;;;;10.90;99.90;;;;;;5079802;28;19929;-83
2022/09/15 02:33:11;;;;;;;;;;;10.90;99.90;;;;;;5059921;28;19925;-83
2022/09/15 02:35:41;;;;;;;;;;;11.30;99.90;;;;;;5088603;28;19933;-83
2022/09/15 02:38:09;;;;;;;;;;;10.90;99.90;;;;;;5090237;28;19929;-84
2022/09/15 02:40:35;;;;;;;;;;;10.90;99.90;;;;;;5086894;28;20603;-83
2022/09/15 02:43:04;;;;;;;;;;;11.00;99.90;;;;;;5087501;28;19965;-82
2022/09/15 02:45:31;;;;;;;;;;;10.90;99.90;;;;;;5068853;28;19956;-83
2022/09/15 02:47:58;;;;;;;;;;;11.00;99.90;;;;;;5068562;28;19935;-83
2022/09/15 02:50:25;;;;;;;;;;;11.00;99.90;;;;;;5060314;28;19928;-83
2022/09/15 02:52:53;;;;;;;;;;;11.10;99.90;;;;;;5065019;28;19967;-83
2022/09/15 02:55:20;;;;;;;;;;;11.40;99.90;;;;;;5067247;28;19963;-83
2022/09/15 02:57:47;;;;;;;;;;;11.40;99.90;;;;;;5087463;28;19929;-83
2022/09/15 03:00:15;;;;;;;;;;;11.30;99.90;;;;;;5080735;28;19931;-83
2022/09/15 03:02:43;;;;;;;;;;;11.40;99.90;;;;;;5087440;28;19931;-83
2022/09/15 03:05:10;;;;;;;;;;;11.40;99.90;;;;;;5087090;28;20389;-82
2022/09/15 03:07:37;;;;;;;;;;;11.40;99.90;;;;;;5068524;28;19924;-82
2022/09/15 03:10:06;;;;;;;;;;;11.50;99.90;;;;;;5086906;28;19928;-83
2022/09/15 03:12:37;;;;;;;;;;;11.50;99.90;;;;;;5086886;28;20283;-83
2022/09/15 03:15:05;;;;;;;;;;;11.60;99.90;;;;;;5069140;28;20453;-83
2022/09/15 03:17:33;;;;;;;;;;;11.70;99.90;;;;;;5089690;28;19938;-83
2022/09/15 03:20:00;;;;;;;;;;;11.70;99.90;;;;;;5078219;28;19936;-83
2022/09/15 03:22:27;;;;;;;;;;;11.70;99.90;;;;;;5088789;28;19954;-83
2022/09/15 03:24:53;;;;;;;;;;;11.80;99.90;;;;;;5091552;28;19933;-83
2022/09/15 03:27:21;;;;;;;;;;;11.90;99.90;;;;;;5083249;28;19946;-82
2022/09/15 03:29:48;;;;;;;;;;;11.90;99.90;;;;;;5074775;28;19932;-82
2022/09/15 03:32:15;;;;;;;;;;;12.00;99.90;;;;;;5077689;28;19997;-83
2022/09/15 03:34:42;;;;;;;;;;;12.10;99.90;;;;;;5094941;28;20180;-83
2022/09/15 03:37:08;;;;;;;;;;;12.10;99.90;;;;;;5088844;28;20968;-84
2022/09/15 03:39:35;;;;;;;;;;;12.20;99.90;;;;;;5063880;28;19939;-84
2022/09/15 03:42:02;;;;;;;;;;;12.20;99.90;;;;;;5088159;28;19932;-84
2022/09/15 03:44:30;;;;;;;;;;;12.20;99.90;;;;;;5059359;28;20215;-83
2022/09/15 03:46:57;;;;;;;;;;;12.30;99.90;;;;;;5070344;28;20642;-83
2022/09/15 03:49:24;;;;;;;;;;;12.30;99.90;;;;;;5068815;28;19986;-83
2022/09/15 03:51:51;;;;;;;;;;;12.40;99.90;;;;;;5075980;28;19971;-83
2022/09/15 03:54:18;;;;;;;;;;;12.50;99.90;;;;;;5063725;28;19932;-83
2022/09/15 03:56:46;;;;;;;;;;;12.50;99.90;;;;;;5064870;28;19968;-83
2022/09/15 03:59:13;;;;;;;;;;;12.50;99.90;;;;;;5071773;28;19945;-84
2022/09/15 04:01:42;;;;;;;;;;;12.50;99.90;;;;;;5083657;28;20019;-83
2022/09/15 04:04:09;;;;;;;;;;;12.50;99.90;;;;;;5075322;28;19935;-83
2022/09/15 04:06:36;;;;;;;;;;;12.60;99.90;;;;;;5078926;28;20582;-83
2022/09/15 04:09:02;;;;;;;;;;;12.90;99.90;;;;;;5087886;28;19951;-83
2022/09/15 04:11:29;;;;;;;;;;;12.60;99.90;;;;;;5079133;28;19931;-83
2022/09/15 04:13:56;;;;;;;;;;;12.60;99.90;;;;;;5096259;28;19983;-83
2022/09/15 04:16:24;;;;;;;;;;;12.60;99.90;;;;;;5098317;28;19943;-83
2022/09/15 04:18:52;;;;;;;;;;;12.70;99.90;;;;;;5100751;28;19932;-83
2022/09/15 04:21:20;;;;;;;;;;;12.70;99.90;;;;;;5096273;28;19912;-82
2022/09/15 04:23:47;;;;;;;;;;;12.70;99.90;;;;;;5080227;28;19932;-83
2022/09/15 04:26:15;;;;;;;;;;;12.80;99.90;;;;;;5098766;28;19934;-83
2022/09/15 04:28:42;;;;;;;;;;;12.80;99.90;;;;;;5088389;28;19928;-84
2022/09/15 04:31:09;;;;;;;;;;;12.80;99.90;;;;;;5071087;28;19939;-84
2022/09/15 04:33:37;;;;;;;;;;;12.70;99.90;;;;;;5077223;28;19928;-84
2022/09/15 04:36:07;;;;;;;;;;;12.70;99.90;;;;;;5073437;28;21236;-83
2022/09/15 04:38:35;;;;;;;;;;;12.80;99.90;;;;;;5068358;28;19928;-85
2022/09/15 04:41:02;;;;;;;;;;;12.80;99.90;;;;;;5062022;28;21435;-84
2022/09/15 04:43:28;;;;;;;;;;;12.60;99.90;;;;;;5082100;28;20007;-85
2022/09/15 04:45:55;;;;;;;;;;;12.80;99.90;;;;;;5083912;28;19928;-84
2022/09/15 04:48:22;;;;;;;;;;;12.80;99.90;;;;;;5087408;28;19928;-83
2022/09/15 04:50:49;;;;;;;;;;;12.80;99.90;;;;;;5084856;28;20412;-83
2022/09/15 04:53:17;;;;;;;;;;;12.80;99.90;;;;;;5088080;28;19954;-84
2022/09/15 04:55:44;;;;;;;;;;;12.80;99.90;;;;;;5086233;28;19932;-84
2022/09/15 04:58:11;;;;;;;;;;;13.70;99.90;;;;;;5082969;28;20302;-83
2022/09/15 05:00:42;;;;;;;;;;;12.80;99.90;;;;;;5082029;28;21019;-84
2022/09/15 05:03:09;;;;;;;;;;;12.80;99.90;;;;;;5076679;28;19932;-84
2022/09/15 05:05:36;;;;;;;;;;;12.80;99.90;;;;;;5063627;28;19932;-83
2022/09/15 05:08:03;;;;;;;;;;;12.80;99.90;;;;;;5084188;28;19943;-84
2022/09/15 05:10:31;;;;;;;;;;;12.80;99.90;;;;;;5087712;28;19935;-84
2022/09/15 05:12:58;;;;;;;;;;;12.90;99.90;;;;;;5064535;28;19925;-84
2022/09/15 05:15:25;;;;;;;;;;;12.90;99.90;;;;;;5084708;28;20314;-85
2022/09/15 05:17:52;;;;;;;;;;;12.90;99.90;;;;;;5087414;28;20301;-85
2022/09/15 05:20:18;;;;;;;;;;;12.90;99.90;;;;;;5079525;28;20928;-84
2022/09/15 05:22:45;;;;;;;;;;;12.90;99.90;;;;;;5066316;28;19928;-85
2022/09/15 05:25:12;;;;;;;;;;;12.90;99.90;;;;;;5077186;28;19924;-85
2022/09/15 05:27:40;;;;;;;;;;;12.90;99.90;;;;;;5077738;28;19947;-85
2022/09/15 05:30:07;;;;;;;;;;;12.90;99.90;;;;;;5065953;28;19929;-85
2022/09/15 05:32:34;;;;;;;;;;;12.90;99.90;;;;;;5061356;28;20347;-84
2022/09/15 05:35:04;;;;;;;;;;;12.90;99.90;;;;;;5065837;28;20148;-86
2022/09/15 05:37:30;;;;;;;;;;;13.00;99.90;;;;;;5071411;28;20525;-84
2022/09/15 05:39:58;;;;;;;;;;;13.00;99.90;;;;;;5039610;28;19932;-85
2022/09/15 05:42:25;;;;;;;;;;;13.10;99.90;;;;;;5035198;28;19933;-85
2022/09/15 05:44:53;;;;;;;;;;;13.10;99.90;;;;;;5035862;28;19929;-85
2022/09/15 05:47:19;;;;;;;;;;;13.10;99.90;;;;;;5057214;28;20337;-85
2022/09/15 05:49:46;;;;;;;;;;;13.20;99.90;;;;;;5053150;28;19929;-85
2022/09/15 05:52:12;;;;;;;;;;;13.20;99.90;;;;;;5055906;28;19925;-85
2022/09/15 05:54:39;;;;;;;;;;;13.30;99.90;;;;;;5034777;28;19929;-85
2022/09/15 05:57:06;;;;;;;;;;;13.50;99.90;;;;;;5056736;28;19929;-85
2022/09/15 05:59:34;;;;;;;;;;;13.50;99.90;;;;;;5062748;28;19924;-85
2022/09/15 06:02:03;;;;;;;;;;;13.60;99.90;;;;;;5040673;28;19928;-85
2022/09/15 06:04:29;;;;;;;;;;;13.70;99.90;;;;;;5067356;28;19978;-85
2022/09/15 06:06:56;;;;;;;;;;;13.70;99.90;;;;;;5067647;28;19932;-86
2022/09/15 06:09:23;;;;;;;;;;;13.90;99.90;;;;;;5067264;28;19925;-85
2022/09/15 06:11:51;;;;;;;;;;;13.90;99.90;;;;;;5072074;28;20282;-86
2022/09/15 06:14:18;;;;;;;;;;;14.00;99.90;;;;;;5071394;28;19929;-85
2022/09/15 06:16:45;;;;;;;;;;;14.10;99.90;;;;;;5073234;28;19929;-85
2022/09/15 06:19:13;;;;;;;;;;;14.10;99.90;;;;;;5070809;28;20396;-85
2022/09/15 06:21:40;;;;;;;;;;;14.20;99.90;;;;;;5057043;28;19987;-85
2022/09/15 06:24:07;;;;;;;;;;;14.30;99.90;;;;;;5033667;28;20405;-85
2022/09/15 06:26:34;;;;;;;;;;;14.40;99.90;;;;;;5046237;28;19929;-85
2022/09/15 06:29:01;;;;;;;;;;;14.30;99.90;;;;;;5049768;28;19951;-85
2022/09/15 06:31:30;;;;;;;;;;;14.40;99.90;;;;;;5056730;28;19935;-85
2022/09/15 06:33:57;;;;;;;;;;;14.30;99.90;;;;;;5052449;28;19929;-85
2022/09/15 06:36:27;;;;;;;;;;;14.70;99.90;;;;;;5044305;28;19979;-85
2022/09/15 06:38:54;;;;;;;;;;;14.70;99.90;;;;;;5058175;28;20306;-85
2022/09/15 06:41:21;;;;;;;;;;;14.80;99.90;;;;;;5062859;28;20317;-85
2022/09/15 06:43:48;;;;;;;;;;;14.80;99.90;;;;;;5069132;28;19936;-85
2022/09/15 06:46:16;;;;;;;;;;;14.90;99.90;;;;;;5070529;28;19924;-85
2022/09/15 06:48:43;;;;;;;;;;;15.00;99.90;;;;;;5055322;28;19936;-85
2022/09/15 06:51:11;;;;;;;;;;;15.00;99.90;;;;;;5064937;28;19928;-85
2022/09/15 06:53:40;;;;;;;;;;;15.10;99.90;;;;;;5090231;28;19932;-85
2022/09/15 06:56:08;;;;;;;;;;;15.10;99.90;;;;;;5070862;28;19944;-85
2022/09/15 06:58:35;;;;;;;;;;;15.10;99.90;;;;;;5064472;28;19978;-86
2022/09/15 07:01:02;;;;;;;;;;;15.20;99.90;;;;;;5085087;28;19928;-86
2022/09/15 07:03:29;;;;;;;;;;;15.30;99.90;;;;;;5053971;28;19928;-86
2022/09/15 07:05:55;;;;;;;;;;;15.30;99.90;;;;;;5070527;28;20031;-86
2022/09/15 07:08:22;;;;;;;;;;;15.40;99.90;;;;;;5068061;28;19947;-85
2022/09/15 07:10:51;;;;;;;;;;;15.50;99.90;;;;;;5072475;28;20169;-85
2022/09/15 07:13:17;;;;;;;;;;;15.60;99.90;;;;;;5077743;28;19928;-85
2022/09/15 07:15:49;;;;;;;;;;;15.80;99.90;;;;;;5080870;28;19924;-83
2022/09/15 07:18:16;;;;;;;;;;;15.90;99.90;;;;;;5069298;28;19966;-83
2022/09/15 07:20:43;;;;;;;;;;;16.00;99.90;;;;;;5055012;28;19959;-83
2022/09/15 07:23:10;;;;;;;;;;;16.00;99.90;;;;;;5062554;28;19933;-82
2022/09/15 07:25:36;;;;;;;;;;;16.20;99.90;;;;;;5080769;28;19928;-83
2022/09/15 07:28:04;;;;;;;;;;;16.30;99.90;;;;;;5049448;28;19998;-83
2022/09/15 07:30:31;;;;;;;;;;;16.50;99.90;;;;;;5070071;28;20061;-82
2022/09/15 07:32:58;;;;;;;;;;;16.60;99.90;;;;;;5053274;28;19928;-82
2022/09/15 07:35:25;;;;;;;;;;;16.70;99.90;;;;;;5070325;28;19928;-82
2022/09/15 07:37:52;;;;;;;;;;;16.90;99.90;;;;;;5067912;28;19924;-82
2022/09/15 07:40:19;;;;;;;;;;;17.00;99.90;;;;;;5069719;28;19951;-82
2022/09/15 07:42:46;;;;;;;;;;;17.20;99.90;;;;;;5060614;28;19935;-82
2022/09/15 07:45:14;;;;;;;;;;;17.40;99.90;;;;;;5045181;28;19932;-83
2022/09/15 07:47:41;;;;;;;;;;;17.70;99.90;;;;;;5066786;28;19928;-82
2022/09/15 07:50:08;;;;;;;;;;;17.90;99.90;;;;;;5084220;28;19935;-85
2022/09/15 07:52:34;;;;;;;;;;;18.10;99.90;;;;;;5082883;28;19939;-85
2022/09/15 07:55:01;;;;;;;;;;;18.30;99.90;;;;;;5071071;28;20311;-86
2022/09/15 07:57:29;;;;;;;;;;;18.40;99.90;;;;;;5075827;28;19928;-86
2022/09/15 07:59:56;;;;;;;;;;;18.60;99.90;;;;;;5080022;28;19927;-85
2022/09/15 08:02:24;;;;;;;;;;;18.60;99.90;;;;;;5059092;28;20501;-87
2022/09/15 08:04:51;;;;;;;;;;;18.70;99.90;;;;;;5056483;28;19932;-85
2022/09/15 08:07:18;;;;;;;;;;;18.80;99.90;;;;;;5068010;28;20399;-85
2022/09/15 08:09:45;;;;;;;;;;;19.10;99.90;;;;;;5055027;28;19932;-85
2022/09/15 08:12:12;;;;;;;;;;;19.10;99.90;;;;;;5072234;28;19932;-85
2022/09/15 08:14:38;;;;;;;;;;;19.00;99.90;;;;;;5052730;28;19924;-85
2022/09/15 08:17:05;;;;;;;;;;;18.90;99.90;;;;;;5050654;28;19936;-85
2022/09/15 08:19:34;;;;;;;;;;;19.00;99.90;;;;;;5051542;28;19974;-85
2022/09/15 08:22:01;;;;;;;;;;;19.20;99.90;;;;;;5069972;28;20303;-85
2022/09/15 08:24:28;;;;;;;;;;;19.30;99.90;;;;;;5073172;28;20011;-85
2022/09/15 08:26:55;;;;;;;;;;;19.50;99.90;;;;;;5072926;28;20001;-85
2022/09/15 08:29:22;;;;;;;;;;;19.40;99.90;;;;;;5073507;28;19929;-85
2022/09/15 08:31:48;;;;;;;;;;;19.30;99.90;;;;;;5052762;28;19928;-86
2022/09/15 08:34:16;;;;;;;;;;;19.30;99.90;;;;;;5071955;28;19935;-86
2022/09/15 08:36:44;;;;;;;;;;;19.40;99.90;;;;;;5070727;28;20378;-86
2022/09/15 08:39:11;;;;;;;;;;;19.60;99.90;;;;;;5070688;28;19936;-86
2022/09/15 08:41:39;;;;;;;;;;;19.70;99.90;;;;;;5062091;28;19959;-85
2022/09/15 08:44:14;;;;;;;;;;;19.70;99.90;;;;;;5033801;28;20139;-86
2022/09/15 08:46:43;;;;;;;;;;;19.60;99.90;;;;;;5060718;28;19924;-85
2022/09/15 08:49:13;;;;;;;;;;;19.70;99.90;;;;;;5056759;28;19928;-86
2022/09/15 08:51:42;;;;;;;;;;;19.90;99.90;;;;;;5063545;28;19939;-86
2022/09/15 08:54:14;;;;;;;;;;;20.10;99.90;;;;;;5054946;28;19932;-86
2022/09/15 08:56:41;;;;;;;;;;;20.40;99.90;;;;;;5085210;28;19928;-87
2022/09/15 08:59:09;;;;;;;;;;;20.60;99.90;;;;;;5076028;28;19939;-87
2022/09/15 09:01:40;;;;;;;;;;;20.70;99.90;;;;;;5077383;28;19950;-87
2022/09/15 09:04:35;;;;;;;;;;;20.90;99.90;;;;;;5067173;28;19929;-86
2022/09/15 09:07:08;;;;;;;;;;;21.00;99.90;;;;;;5060279;28;19920;-85
2022/09/15 09:09:39;;;;;;;;;;;21.30;99.90;;;;;;5087031;28;19958;-86
2022/09/15 09:12:21;;;;;;;;;;;21.30;99.90;;;;;;5076768;28;19932;-86
2022/09/15 09:14:55;;;;;;;;;;;21.10;99.90;;;;;;5063396;28;19931;-85
2022/09/15 09:17:34;;;;;;;;;;;21.10;99.90;;;;;;5053132;28;19924;-85
2022/09/15 09:20:16;;;;;;;;;;;21.30;99.90;;;;;;5057918;28;19928;-86
2022/09/15 09:22:43;;;;;;;;;;;21.30;99.90;;;;;;5051076;28;19928;-86
2022/09/15 09:25:14;;;;;;;;;;;21.20;99.90;;;;;;5039886;28;19929;-86
2022/09/15 09:27:42;;;;;;;;;;;21.10;99.90;;;;;;5052851;28;19983;-86
2022/09/15 09:30:13;;;;;;;;;;;21.20;99.90;;;;;;5054258;28;20061;-86
2022/09/15 09:32:44;;;;;;;;;;;21.40;99.90;;;;;;5062639;28;19925;-86
2022/09/15 09:35:16;;;;;;;;;;;21.50;99.90;;;;;;5058269;28;19933;-87
2022/09/15 09:37:42;;;;;;;;;;;23.30;99.90;;;;;;5080104;28;19931;-86
2022/09/15 09:40:13;;;;;;;;;;;21.50;99.90;;;;;;5055202;28;19932;-86
2022/09/15 09:42:40;;;;;;;;;;;21.50;99.90;;;;;;5062986;28;19962;-86
2022/09/15 09:45:07;;;;;;;;;;;21.60;99.90;;;;;;5060903;28;19925;-86
2022/09/15 09:47:34;;;;;;;;;;;22.40;99.90;;;;;;5059740;28;19948;-86
2022/09/15 09:50:03;;;;;;;;;;;21.90;99.90;;;;;;5077779;28;19928;-86
2022/09/15 09:52:33;;;;;;;;;;;22.00;99.90;;;;;;5053643;28;19928;-85
2022/09/15 09:55:01;;;;;;;;;;;22.00;99.90;;;;;;5068632;28;19928;-86
2022/09/15 09:57:30;;;;;;;;;;;22.00;99.90;;;;;;5065551;28;20248;-86
2022/09/15 09:59:57;;;;;;;;;;;22.00;99.90;;;;;;5064882;28;20051;-87
2022/09/15 10:02:25;;;;;;;;;;;21.70;99.90;;;;;;5081326;28;19925;-86
2022/09/15 10:04:52;;;;;;;;;;;21.50;99.90;;;;;;5052177;28;19994;-86
2022/09/15 10:07:21;;;;;;;;;;;21.20;99.90;;;;;;5052291;28;19935;-86
2022/09/15 10:09:49;;;;;;;;;;;21.10;99.90;;;;;;5046069;28;19932;-86
2022/09/15 10:12:19;;;;;;;;;;;21.10;99.90;;;;;;5067965;28;19963;-86
2022/09/15 10:14:50;;;;;;;;;;;21.00;99.90;;;;;;5084306;28;19936;-86
2022/09/15 10:17:19;;;;;;;;;;;20.90;99.90;;;;;;5061662;28;19924;-86
2022/09/15 10:19:47;;;;;;;;;;;20.80;99.90;;;;;;5081959;28;19964;-85
2022/09/15 10:22:28;;;;;;;;;;;20.80;99.90;;;;;;5053232;28;19940;-86
2022/09/15 10:24:55;;;;;;;;;;;20.80;99.90;;;;;;5055356;28;19924;-86
2022/09/15 10:27:29;;;;;;;;;;;20.90;99.90;;;;;;5040442;28;20015;-86
2022/09/15 10:30:13;;;;;;;;;;;21.00;99.90;;;;;;5068167;28;19978;-88
2022/09/15 10:32:40;;;;;;;;;;;21.00;99.90;;;;;;5051642;28;19928;-88
2022/09/15 10:35:11;;;;;;;;;;;21.00;99.90;;;;;;5067366;28;19924;-90
2022/09/15 10:37:45;;;;;;;;;;;21.30;99.90;;;;;;5064019;28;19924;-89
2022/09/15 10:40:31;;;;;;;;;;;21.60;99.90;;;;;;5058706;28;19935;-88
2022/09/15 10:43:08;;;;;;;;;;;21.70;99.90;;;;;;5079544;28;19953;-90
2022/09/15 10:45:44;;;;;;;;;;;21.60;99.90;;;;;;5090981;28;19924;-90
2022/09/15 10:48:26;;;;;;;;;;;21.60;99.90;;;;;;5075699;28;19963;-88
2022/09/15 10:50:58;;;;;;;;;;;21.30;99.90;;;;;;5061123;28;19964;-88
2022/09/15 10:53:34;;;;;;;;;;;21.00;99.90;;;;;;5078281;28;19924;-88
2022/09/15 10:56:06;;;;;;;;;;;20.70;99.90;;;;;;5061920;28;19928;-88
2022/09/15 10:58:39;;;;;;;;;;;20.40;99.90;;;;;;5063844;28;19935;-89
2022/09/15 11:01:16;;;;;;;;;;;20.00;99.90;;;;;;5066068;28;20043;-88
2022/09/15 11:03:52;;;;;;;;;;;19.30;99.90;;;;;;5059760;28;19928;-88
2022/09/15 11:06:23;;;;;;;;;;;19.00;99.90;;;;;;5061854;28;19932;-88
2022/09/15 11:09:05;;;;;;;;;;;19.40;99.90;;;;;;5059432;28;20002;-88
2022/09/15 11:11:38;;;;;;;;;;;18.70;99.90;;;;;;5057564;28;19946;-88
2022/09/15 11:14:15;;;;;;;;;;;18.70;99.90;;;;;;5074832;28;19940;-88
2022/09/15 11:16:50;;;;;;;;;;;18.70;99.90;;;;;;5067878;28;19931;-88
2022/09/15 11:19:30;;;;;;;;;;;18.30;99.90;;;;;;5055876;28;19928;-88
2022/09/15 11:21:57;;;;;;;;;;;18.60;99.90;;;;;;5051433;28;19928;-88
2022/09/15 11:24:31;;;;;;;;;;;18.60;99.90;;;;;;5075698;28;19940;-88
2022/09/15 11:27:03;;;;;;;;;;;18.40;99.90;;;;;;5056384;28;19942;-89
2022/09/15 11:29:34;;;;;;;;;;;18.20;99.90;;;;;;5062736;28;19924;-88
2022/09/15 11:32:06;;;;;;;;;;;18.20;99.90;;;;;;5068091;28;19936;-88
2022/09/15 11:34:35;;;;;;;;;;;18.10;99.90;;;;;;5081586;28;19935;-88
2022/09/15 11:37:06;;;;;;;;;;;17.90;99.90;;;;;;5061587;28;19929;-88
2022/09/15 11:39:34;;;;;;;;;;;18.20;99.90;;;;;;5044279;28;20345;-88
2022/09/15 11:42:06;;;;;;;;;;;18.10;99.90;;;;;;5056657;28;19939;-89
2022/09/15 11:44:33;;;;;;;;;;;18.20;99.90;;;;;;5046012;28;19931;-87
2022/09/15 11:47:10;;;;;;;;;;;18.50;99.90;;;;;;5054618;28;19936;-88
2022/09/15 11:49:41;;;;;;;;;;;19.10;99.90;;;;;;5043463;28;20386;-88
2022/09/15 11:52:14;;;;;;;;;;;19.20;99.90;;;;;;5041902;28;19929;-87
2022/09/15 11:54:45;;;;;;;;;;;19.60;99.90;;;;;;5070377;28;19929;-87
2022/09/15 11:57:16;;;;;;;;;;;19.90;99.90;;;;;;5061012;28;19962;-87
2022/09/15 11:59:47;;;;;;;;;;;20.00;99.90;;;;;;5064221;28;19928;-87
2022/09/15 12:02:20;;;;;;;;;;;20.20;99.90;;;;;;5068346;28;19939;-87
2022/09/15 12:04:56;;;;;;;;;;;20.50;99.90;;;;;;5050302;28;19928;-87
2022/09/15 12:07:27;;;;;;;;;;;20.60;99.90;;;;;;5053838;28;19931;-87
2022/09/15 12:09:55;;;;;;;;;;;20.70;99.90;;;;;;5076797;28;19935;-87
2022/09/15 12:12:22;;;;;;;;;;;20.70;99.90;;;;;;5077573;28;19928;-87
2022/09/15 12:14:51;;;;;;;;;;;20.60;99.90;;;;;;5070722;28;19940;-86
2022/09/15 12:17:25;;;;;;;;;;;20.80;99.90;;;;;;5056685;28;19999;-86
2022/09/15 12:19:55;;;;;;;;;;;20.90;99.90;;;;;;5060497;28;19935;-85
2022/09/15 12:22:23;;;;;;;;;;;20.80;99.90;;;;;;5058799;28;19930;-85
2022/09/15 12:24:55;;;;;;;;;;;20.70;99.90;;;;;;5059347;28;19944;-85
2022/09/15 12:27:22;;;;;;;;;;;20.70;99.90;;;;;;5074391;28;19932;-86
2022/09/15 12:29:50;;;;;;;;;;;20.60;99.90;;;;;;5079487;28;19951;-85
2022/09/15 12:32:23;;;;;;;;;;;20.30;99.90;;;;;;5069512;28;20006;-85
2022/09/15 12:35:05;;;;;;;;;;;20.10;99.90;;;;;;5070498;28;19967;-85
2022/09/15 12:37:42;;;;;;;;;;;20.00;99.90;;;;;;5069544;28;19932;-85
2022/09/15 12:40:28;;;;;;;;;;;19.80;99.90;;;;;;5070248;28;19933;-85
2022/09/15 12:42:56;;;;;;;;;;;19.40;99.90;;;;;;5077783;28;20292;-86
2022/09/15 12:45:26;;;;;;;;;;;19.30;99.90;;;;;;5075133;28;20405;-85
2022/09/15 12:47:55;;;;;;;;;;;19.30;99.90;;;;;;5075619;28;19964;-85
2022/09/15 12:50:24;;;;;;;;;;;19.20;99.90;;;;;;5057886;28;19956;-85
2022/09/15 12:52:52;;;;;;;;;;;19.20;99.90;;;;;;5057451;28;19925;-86
2022/09/15 12:55:20;;;;;;;;;;;19.30;99.90;;;;;;5057340;28;19932;-85
2022/09/15 12:57:52;;;;;;;;;;;19.50;99.90;;;;;;5074617;28;19932;-86
2022/09/15 13:00:22;;;;;;;;;;;;;;;;;;5073933;28;19935;-85
2022/09/15 13:02:50;;;;;;;;;;;19.70;99.90;;;;;;5074561;28;19928;-85
2022/09/15 13:05:49;;;;;;;;;;;19.70;99.90;;;;;;5075755;28;19928;-85
2022/09/15 13:08:42;;;;;;;;;;;19.80;99.90;;;;;;5035714;28;19952;-85
2022/09/15 13:11:12;;;;;;;;;;;19.90;99.90;;;;;;5056907;28;19980;-85
2022/09/15 13:13:42;;;;;;;;;;;20.20;99.90;;;;;;5037974;28;19929;-86
2022/09/15 13:16:13;;;;;;;;;;;20.20;99.90;;;;;;5064944;28;19982;-86
2022/09/15 13:18:40;;;;;;;;;;;;;;;;;;5055155;28;20394;-86
2022/09/15 13:21:12;;;;;;;;;;;20.30;99.90;;;;;;5057540;28;19928;-85
2022/09/15 13:23:40;;;;;;;;;;;20.30;99.90;;;;;;5055690;28;19932;-86
2022/09/15 13:26:11;;;;;;;;;;;20.30;99.90;;;;;;5078649;28;19928;-86
2022/09/15 13:28:39;;;;;;;;;;;20.40;99.90;;;;;;5066783;28;20534;-85
2022/09/15 13:31:11;;;;;;;;;;;20.40;99.90;;;;;;5062587;28;19936;-85
2022/09/15 13:33:48;;;;;;;;;;;20.50;99.90;;;;;;5056691;28;20390;-85
2022/09/15 13:36:22;;;;;;;;;;;20.70;99.90;;;;;;5043060;28;19978;-86
2022/09/15 13:38:55;;;;;;;;;;;20.80;99.90;;;;;;5075586;28;19936;-85
2022/09/15 13:41:38;;;;;;;;;;;20.80;99.90;;;;;;5072272;28;19929;-85
2022/09/15 13:44:24;;;;;;;;;;;20.70;99.90;;;;;;5074986;28;20404;-86
2022/09/15 13:46:56;;;;;;;;;;;20.60;99.90;;;;;;5074983;28;19925;-86
2022/09/15 13:49:37;;;;;;;;;;;20.40;99.90;;;;;;5066445;28;19925;-86
2022/09/15 13:52:11;;;;;;;;;;;20.20;99.90;;;;;;5042680;28;19990;-86
2022/09/15 13:54:58;;;;;;;;;;;20.00;99.90;;;;;;5053105;28;19932;-86
2022/09/15 13:57:25;;;;;;;;;;;19.90;99.90;;;;;;5073114;28;19924;-86
2022/09/15 13:59:52;;;;;;;;;;;19.90;99.90;;;;;;5072461;28;19929;-86
2022/09/15 14:02:19;;;;;;;;;;;20.00;99.90;;;;;;5060001;28;19928;-86
2022/09/15 14:04:50;;;;;;;;;;;20.10;99.90;;;;;;5074947;28;19939;-86
2022/09/15 14:07:22;;;;;;;;;;;20.30;99.90;;;;;;5053623;28;20202;-86
2022/09/15 14:09:49;;;;;;;;;;;20.50;99.90;;;;;;5072356;28;19928;-87
2022/09/15 14:12:17;;;;;;;;;;;20.60;99.90;;;;;;5057307;28;19996;-87
2022/09/15 14:14:44;;;;;;;;;;;20.60;99.90;;;;;;5084514;28;19991;-85
2022/09/15 14:17:18;;;;;;;;;;;20.70;99.90;;;;;;5077344;28;19957;-86
2022/09/15 14:19:47;;;;;;;;;;;20.70;99.90;;;;;;5068763;28;19928;-88
2022/09/15 14:22:26;;;;;;;;;;;20.80;99.90;;;;;;5086480;28;20027;-86
2022/09/15 14:24:54;;;;;;;;;;;20.90;99.90;;;;;;5090710;28;19928;-87
2022/09/15 14:27:23;;;;;;;;;;;20.90;99.90;;;;;;5044795;28;19960;-85
2022/09/15 14:29:54;;;;;;;;;;;20.80;99.90;;;;;;5075939;28;19975;-86
2022/09/15 14:32:21;;;;;;;;;;;20.70;99.90;;;;;;5081720;28;19931;-86
2022/09/15 14:34:49;;;;;;;;;;;20.70;99.90;;;;;;5074380;28;19950;-86